Time;durP1;ratioP1;P1;durP2;ratioP2;P2;SDS_P1;SDS_P2;PMS_P1;PMS_P2;Temp;Humidity;BMP_temperature;BMP_pressure;BME280_temperature;BME280_humidity;BME280_pressure;Samples;Min_cycle;Max_cycle;Signal;HPM_P1;HPM_P2
2024/01/11 00:00:34;;;;;;;;;;;;;;;20.76;25.37;96393.72;10514168;28;1970;-67
2024/01/11 00:05:34;;;;;;;;;;;;;;;20.74;25.61;96390.56;10496839;28;1982;-67
2024/01/11 00:10:35;;;;;;;;;;;;;;;20.72;25.55;96397.94;10514652;28;2574;-67
2024/01/11 00:15:35;;;;;;;;;;;;;;;20.71;25.62;96398.19;10510967;28;1966;-68
2024/01/11 00:20:35;;;;;;;;;;;;;;;20.69;25.38;96395.03;10507689;28;2119;-68
2024/01/11 00:25:38;;;;;;;;;;;;;;;20.66;25.67;96398.97;10485050;28;2073;-67
2024/01/11 00:30:38;;;;;;;;;;;;;;;20.64;25.33;96392.34;10512761;28;2017;-67
2024/01/11 00:35:38;;;;;;;;;;;;;;;20.61;25.36;96398.94;10508710;28;1993;-67
2024/01/11 00:40:39;;;;;;;;;;;;;;;20.60;25.16;96399.19;10519180;28;1975;-67
2024/01/11 00:45:39;;;;;;;;;;;;;;;20.57;25.52;96397.06;10509597;28;1892;-67
2024/01/11 00:50:39;;;;;;;;;;;;;;;20.56;25.33;96396.28;10510100;28;1977;-67
2024/01/11 00:55:39;;;;;;;;;;;;;;;20.55;25.16;96397.31;10508277;28;1972;-67
2024/01/11 01:00:40;;;;;;;;;;;;;;;20.54;25.03;96406.28;10513513;28;1977;-67
2024/01/11 01:05:40;;;;;;;;;;;;;;;20.51;25.28;96398.88;10513655;28;1941;-68
2024/01/11 01:10:41;;;;;;;;;;;;;;;20.52;24.99;96411.03;10514298;28;2233;-68
2024/01/11 01:15:41;;;;;;;;;;;;;;;20.54;24.98;96413.41;10512220;28;2080;-68
2024/01/11 01:20:41;;;;;;;;;;;;;;;20.55;24.79;96407.88;10515900;28;2064;-67
2024/01/11 01:25:41;;;;;;;;;;;;;;;20.54;24.91;96414.19;10510109;28;2107;-68
2024/01/11 01:30:42;;;;;;;;;;;;;;;20.56;24.79;96413.94;10506473;28;2205;-69
2024/01/11 01:35:42;;;;;;;;;;;;;;;20.57;24.74;96410.22;10511301;28;2063;-67
2024/01/11 01:40:42;;;;;;;;;;;;;;;20.57;24.49;96421.56;10510447;28;2025;-68
2024/01/11 01:45:43;;;;;;;;;;;;;;;20.58;24.54;96431.06;10512902;28;2086;-68
2024/01/11 01:50:45;;;;;;;;;;;;;;;20.58;24.74;96435.53;10508606;28;2773;-67
2024/01/11 01:55:45;;;;;;;;;;;;;;;20.57;24.39;96437.38;10514158;28;2280;-68
2024/01/11 02:00:45;;;;;;;;;;;;;;;20.56;24.61;96438.44;10510322;28;1925;-68
2024/01/11 02:05:46;;;;;;;;;;;;;;;20.58;24.35;96438.16;10477818;28;1973;-68
2024/01/11 02:10:46;;;;;;;;;;;;;;;20.57;24.40;96445.28;10506123;28;2072;-68
2024/01/11 02:15:46;;;;;;;;;;;;;;;20.57;24.46;96440.00;10498835;28;2422;-67
2024/01/11 02:20:47;;;;;;;;;;;;;;;20.57;24.25;96432.09;10497102;28;1906;-68
2024/01/11 02:25:47;;;;;;;;;;;;;;;20.56;24.42;96420.00;10516846;28;1896;-67
2024/01/11 02:30:47;;;;;;;;;;;;;;;20.55;24.58;96426.31;10510056;28;2482;-67
2024/01/11 02:35:47;;;;;;;;;;;;;;;20.57;24.18;96426.84;10515584;28;2072;-68
2024/01/11 02:40:48;;;;;;;;;;;;;;;20.57;24.18;96434.72;10510728;28;2207;-67
2024/01/11 02:45:48;;;;;;;;;;;;;;;20.56;24.30;96420.00;10518688;28;1969;-68
2024/01/11 02:50:48;;;;;;;;;;;;;;;20.56;24.43;96421.84;10520451;28;2052;-69
2024/01/11 02:55:49;;;;;;;;;;;;;;;20.56;24.11;96406.03;10519547;28;1969;-69
2024/01/11 03:00:50;;;;;;;;;;;;;;;20.55;24.16;96421.03;10517295;28;2005;-70
2024/01/11 03:05:50;;;;;;;;;;;;;;;20.57;24.20;96415.50;10502233;28;1986;-69
2024/01/11 03:10:51;;;;;;;;;;;;;;;20.55;24.02;96410.50;10516099;28;1935;-66
2024/01/11 03:15:51;;;;;;;;;;;;;;;20.54;24.11;96403.66;10498356;28;2478;-67
2024/01/11 03:20:51;;;;;;;;;;;;;;;20.56;23.99;96400.75;10521053;28;1940;-67
2024/01/11 03:25:51;;;;;;;;;;;;;;;20.54;24.26;96387.84;10517773;28;2037;-69
2024/01/11 03:30:52;;;;;;;;;;;;;;;20.54;24.13;96385.22;10517365;28;1917;-67
2024/01/11 03:35:52;;;;;;;;;;;;;;;20.54;24.21;96387.06;10518167;28;1876;-68
2024/01/11 03:40:52;;;;;;;;;;;;;;;20.55;23.97;96384.16;10522936;28;2067;-69
2024/01/11 03:45:53;;;;;;;;;;;;;;;20.55;24.11;96388.63;10513489;28;2027;-70
2024/01/11 03:50:53;;;;;;;;;;;;;;;20.55;24.03;96378.09;10494879;28;2091;-68
2024/01/11 03:55:53;;;;;;;;;;;;;;;20.55;23.78;96375.47;10518560;28;2013;-67
2024/01/11 04:00:54;;;;;;;;;;;;;;;20.53;23.89;96365.19;10496421;28;2427;-68
2024/01/11 04:05:54;;;;;;;;;;;;;;;20.52;23.85;96365.44;10519680;28;2041;-66
2024/01/11 04:10:54;;;;;;;;;;;;;;;20.51;24.12;96366.50;10515314;28;1977;-70
2024/01/11 04:15:54;;;;;;;;;;;;;;;20.53;23.86;96369.66;10521911;28;1951;-69
2024/01/11 04:20:55;;;;;;;;;;;;;;;20.52;23.92;96368.88;10511905;28;2000;-68
2024/01/11 04:25:55;;;;;;;;;;;;;;;20.52;23.83;96374.16;10513369;28;1950;-69
2024/01/11 04:30:55;;;;;;;;;;;;;;;20.50;23.74;96384.16;10492538;28;1917;-70
2024/01/11 04:35:55;;;;;;;;;;;;;;;20.51;23.87;96384.91;10520036;28;1913;-69
2024/01/11 04:40:56;;;;;;;;;;;;;;;20.50;23.99;96386.78;10513202;28;2059;-69
2024/01/11 04:45:56;;;;;;;;;;;;;;;20.50;23.99;96393.88;10503592;28;2201;-69
2024/01/11 04:50:56;;;;;;;;;;;;;;;20.49;23.88;96387.81;10514457;28;2051;-69
2024/01/11 04:55:57;;;;;;;;;;;;;;;20.49;23.79;96395.72;10503404;28;1963;-68
2024/01/11 05:00:57;;;;;;;;;;;;;;;20.49;23.85;96387.81;10494115;28;1975;-69
2024/01/11 05:05:57;;;;;;;;;;;;;;;20.48;23.73;96393.34;10505873;28;2290;-68
2024/01/11 05:10:58;;;;;;;;;;;;;;;20.49;23.62;96395.72;10515995;28;2015;-69
2024/01/11 05:15:58;;;;;;;;;;;;;;;20.47;23.75;96386.50;10509261;28;2084;-69
2024/01/11 05:20:58;;;;;;;;;;;;;;;20.46;23.73;96383.09;10513423;28;1976;-69
2024/01/11 05:25:59;;;;;;;;;;;;;;;20.47;23.52;96382.03;10514375;28;2392;-69
2024/01/11 05:30:59;;;;;;;;;;;;;;;20.46;23.65;96384.91;10511174;28;1928;-69
2024/01/11 05:35:59;;;;;;;;;;;;;;;20.45;23.67;96392.03;10517563;28;1977;-69
2024/01/11 05:40:59;;;;;;;;;;;;;;;20.45;23.55;96391.22;10515984;28;1981;-69
2024/01/11 05:46:00;;;;;;;;;;;;;;;20.43;23.60;96412.56;10506428;28;1981;-69
2024/01/11 05:51:00;;;;;;;;;;;;;;;20.44;23.64;96406.25;10517702;28;2098;-70
2024/01/11 05:56:00;;;;;;;;;;;;;;;20.40;23.83;96410.44;10511081;28;2051;-69
2024/01/11 06:01:01;;;;;;;;;;;;;;;20.42;23.66;96416.25;10504511;28;2199;-70
2024/01/11 06:06:02;;;;;;;;;;;;;;;20.42;23.37;96410.19;10504223;28;1939;-70
2024/01/11 06:11:03;;;;;;;;;;;;;;;20.39;23.49;96408.84;10515973;28;2352;-70
2024/01/11 06:16:04;;;;;;;;;;;;;;;20.40;23.53;96420.97;10514978;28;2111;-71
2024/01/11 06:21:04;;;;;;;;;;;;;;;20.39;23.44;96427.28;10516729;28;1928;-70
2024/01/11 06:26:04;;;;;;;;;;;;;;;20.38;23.75;96438.06;10519387;28;2068;-69
2024/01/11 06:31:05;;;;;;;;;;;;;;;20.38;23.39;96441.47;10513535;28;2078;-68
2024/01/11 06:36:06;;;;;;;;;;;;;;;20.37;23.36;96442.53;10520823;28;1900;-68
2024/01/11 06:41:06;;;;;;;;;;;;;;;20.37;23.31;96444.38;10523617;28;2000;-77
2024/01/11 06:46:07;;;;;;;;;;;;;;;20.37;23.35;96455.72;10516179;28;1920;-72
2024/01/11 06:51:08;;;;;;;;;;;;;;;20.38;23.32;96475.72;10527329;28;1905;-73
2024/01/11 06:56:17;;;;;;;;;;;;;;;20.38;23.46;96472.31;10512233;28;2236;-74
2024/01/11 07:01:17;;;;;;;;;;;;;;;20.39;23.26;96461.50;10527714;28;2002;-74
2024/01/11 07:06:18;;;;;;;;;;;;;;;20.37;22.90;96460.97;10523669;28;1984;-74
2024/01/11 07:11:18;;;;;;;;;;;;;;;20.37;23.48;96474.13;10514256;28;1903;-74
2024/01/11 07:16:18;;;;;;;;;;;;;;;20.38;23.29;96467.03;10514633;28;1888;-72
2024/01/11 07:21:29;;;;;;;;;;;;;;;20.37;23.13;96470.72;10520398;28;2079;-74
2024/01/11 07:26:29;;;;;;;;;;;;;;;20.35;23.28;96468.34;10515444;28;2138;-73
2024/01/11 07:31:29;;;;;;;;;;;;;;;20.39;23.01;96471.25;10514585;28;2004;-75
2024/01/11 07:36:29;;;;;;;;;;;;;;;20.35;23.00;96473.59;10516587;28;1898;-72
2024/01/11 07:41:30;;;;;;;;;;;;;;;20.35;23.41;96473.59;10510985;28;2728;-82
2024/01/11 07:46:30;;;;;;;;;;;;;;;20.38;23.53;96486.25;10513967;28;2234;-74
2024/01/11 07:51:30;;;;;;;;;;;;;;;20.41;23.59;96483.13;10500704;28;1981;-73
2024/01/11 07:56:31;;;;;;;;;;;;;;;20.49;23.22;96481.84;10516435;28;2085;-72
2024/01/11 08:01:31;;;;;;;;;;;;;;;20.51;23.13;96487.63;10515397;28;2427;-71
2024/01/11 08:06:32;;;;;;;;;;;;;;;20.56;23.05;96490.31;10513964;28;1917;-72
2024/01/11 08:11:32;;;;;;;;;;;;;;;20.57;23.83;96484.78;10513900;28;1897;-74
2024/01/11 08:16:33;;;;;;;;;;;;;;;20.63;23.53;96481.13;10514452;28;1964;-75
2024/01/11 08:21:33;;;;;;;;;;;;;;;20.65;23.26;96494.81;10510082;28;2036;-75
2024/01/11 08:26:33;;;;;;;;;;;;;;;20.72;23.32;96510.41;10512904;28;1917;-76
2024/01/11 08:31:33;;;;;;;;;;;;;;;20.72;22.89;96500.69;10514601;28;2004;-74
2024/01/11 08:36:34;;;;;;;;;;;;;;;20.74;23.27;96497.78;10524932;28;2291;-74
2024/01/11 08:41:37;;;;;;;;;;;;;;;20.76;22.99;96511.47;10515620;28;2145;-75
2024/01/11 08:46:38;;;;;;;;;;;;;;;20.78;22.99;96530.47;10517663;28;2048;-75
2024/01/11 08:51:38;;;;;;;;;;;;;;;20.80;23.04;96550.25;10512112;28;1884;-75
2024/01/11 08:56:40;;;;;;;;;;;;;;;20.72;23.24;96537.56;10515460;28;1918;-68
2024/01/11 09:01:40;;;;;;;;;;;;;;;20.75;23.31;96554.69;10515167;28;2033;-69
2024/01/11 09:06:41;;;;;;;;;;;;;;;20.77;23.04;96566.56;10513973;28;1982;-70
2024/01/11 09:11:41;;;;;;;;;;;;;;;20.79;22.88;96571.59;10523707;28;1884;-70
2024/01/11 09:16:41;;;;;;;;;;;;;;;20.77;22.89;96566.56;10515249;28;1903;-70
2024/01/11 09:21:42;;;;;;;;;;;;;;;20.73;23.50;96559.44;10516963;28;1933;-70
2024/01/11 09:26:42;;;;;;;;;;;;;;;20.76;22.65;96575.53;10516232;28;2062;-74
2024/01/11 09:31:42;;;;;;;;;;;;;;;20.79;22.88;96568.97;10497641;28;2691;-69
2024/01/11 09:36:42;;;;;;;;;;;;;;;20.81;22.52;96566.84;10516794;28;2055;-70
2024/01/11 09:41:46;;;;;;;;;;;;;;;20.75;22.99;96562.59;10515658;28;1985;-69
2024/01/11 09:46:47;;;;;;;;;;;;;;;20.73;22.93;96560.22;10514119;28;1989;-70
2024/01/11 09:51:47;;;;;;;;;;;;;;;20.73;22.94;96560.22;10530229;28;1887;-70
2024/01/11 09:56:49;;;;;;;;;;;;;;;20.73;22.71;96549.66;10513320;28;2032;-68
2024/01/11 10:01:49;;;;;;;;;;;;;;;20.76;22.81;96533.38;10526206;28;2221;-69
2024/01/11 10:06:50;;;;;;;;;;;;;;;20.78;22.94;96531.25;10525113;28;2121;-69
2024/01/11 10:11:53;;;;;;;;;;;;;;;20.85;23.54;96534.47;10520495;28;1971;-68
2024/01/11 10:16:53;;;;;;;;;;;;;;;20.77;23.61;96529.66;10523627;28;1870;-64
2024/01/11 10:21:54;;;;;;;;;;;;;;;20.82;24.38;96519.16;10526284;28;1985;-75
2024/01/11 10:26:57;;;;;;;;;;;;;;;20.85;22.33;96510.75;10526028;28;2108;-75
2024/01/11 10:31:57;;;;;;;;;;;;;;;20.85;22.49;96528.41;10525514;28;2435;-76
2024/01/11 10:36:58;;;;;;;;;;;;;;;20.81;22.63;96516.78;10523859;28;1916;-74
2024/01/11 10:42:04;;;;;;;;;;;;;;;20.81;22.59;96504.38;10528578;28;1973;-75
2024/01/11 10:47:06;;;;;;;;;;;;;;;20.86;23.54;96501.00;10526421;28;1990;-75
2024/01/11 10:52:07;;;;;;;;;;;;;;;20.93;22.37;96505.00;10508804;28;2224;-75
2024/01/11 10:57:07;;;;;;;;;;;;;;;21.02;21.91;96510.56;10526144;28;2063;-75
2024/01/11 11:02:12;;;;;;;;;;;;;;;21.10;22.23;96506.66;10516730;28;2221;-67
2024/01/11 11:07:12;;;;;;;;;;;;;;;21.18;23.15;96504.31;10521503;28;1925;-65
2024/01/11 11:12:13;;;;;;;;;;;;;;;21.45;21.90;96485.66;10522555;28;1967;-66
2024/01/11 11:17:14;;;;;;;;;;;;;;;21.56;22.13;96492.53;10512523;28;1992;-64
2024/01/11 11:22:15;;;;;;;;;;;;;;;21.65;23.98;96498.88;10518082;28;2017;-68
2024/01/11 11:27:16;;;;;;;;;;;;;;;21.78;24.34;96496.50;10498467;28;2356;-70
2024/01/11 11:32:17;;;;;;;;;;;;;;;21.90;24.44;96520.06;10498026;28;2047;-65
2024/01/11 11:37:23;;;;;;;;;;;;;;;21.97;25.25;96506.59;10514727;28;1917;-68
2024/01/11 11:42:24;;;;;;;;;;;;;;;22.06;22.94;96503.16;10522900;28;1984;-73
2024/01/11 11:47:25;;;;;;;;;;;;;;;21.98;23.58;96493.13;10511450;28;1989;-69
2024/01/11 11:52:25;;;;;;;;;;;;;;;21.86;22.65;96500.53;10525280;28;1981;-68
2024/01/11 11:57:27;;;;;;;;;;;;;;;21.96;23.49;96486.53;10521138;28;1985;-67
2024/01/11 12:02:27;;;;;;;;;;;;;;;22.01;23.54;96500.50;10513269;28;1910;-66
2024/01/11 12:07:28;;;;;;;;;;;;;;;22.05;23.11;96483.06;10520172;28;1961;-68
2024/01/11 12:12:28;;;;;;;;;;;;;;;22.10;23.56;96485.72;10486429;28;1989;-67
2024/01/11 12:17:28;;;;;;;;;;;;;;;22.24;23.22;96489.41;10500172;28;2024;-67
2024/01/11 12:22:29;;;;;;;;;;;;;;;22.28;23.11;96447.41;10514714;28;2540;-66
2024/01/11 12:27:29;;;;;;;;;;;;;;;22.26;23.32;96444.25;10496288;28;2240;-68
2024/01/11 12:32:30;;;;;;;;;;;;;;;22.26;23.12;96470.66;10513014;28;2036;-67
2024/01/11 12:37:30;;;;;;;;;;;;;;;22.27;23.24;96448.47;10510154;28;2172;-67
2024/01/11 12:42:30;;;;;;;;;;;;;;;22.30;23.83;96469.84;10514440;28;1954;-66
2024/01/11 12:47:31;;;;;;;;;;;;;;;22.25;23.28;96484.94;10513085;28;2029;-66
2024/01/11 12:52:31;;;;;;;;;;;;;;;22.37;23.52;96480.16;10513720;28;2056;-67
2024/01/11 12:57:33;;;;;;;;;;;;;;;22.45;22.97;96464.53;10516927;28;2067;-67
2024/01/11 13:02:33;;;;;;;;;;;;;;;22.54;23.21;96452.38;10516374;28;1910;-66
2024/01/11 13:07:34;;;;;;;;;;;;;;;22.58;22.72;96445.53;10518309;28;1995;-68
2024/01/11 13:12:34;;;;;;;;;;;;;;;22.61;23.25;96452.91;10516155;28;1920;-68
2024/01/11 13:17:34;;;;;;;;;;;;;;;22.62;22.74;96456.34;10516332;28;2421;-67
2024/01/11 13:22:34;;;;;;;;;;;;;;;22.64;22.56;96459.50;10513766;28;1973;-68
2024/01/11 13:27:35;;;;;;;;;;;;;;;22.61;23.05;96446.81;10513815;28;1891;-67
2024/01/11 13:32:35;;;;;;;;;;;;;;;22.61;23.01;96457.38;10515729;28;1951;-67
2024/01/11 13:37:35;;;;;;;;;;;;;;;22.57;22.52;96465.03;10514042;28;2096;-72
2024/01/11 13:42:36;;;;;;;;;;;;;;;22.45;23.05;96466.38;10514622;28;1985;-66
2024/01/11 13:47:36;;;;;;;;;;;;;;;22.40;23.13;96477.75;10509095;28;1959;-67
2024/01/11 13:52:36;;;;;;;;;;;;;;;22.41;23.25;96481.19;10500968;28;1862;-67
2024/01/11 13:57:37;;;;;;;;;;;;;;;22.45;23.10;96490.16;10514540;28;2437;-66
2024/01/11 14:02:37;;;;;;;;;;;;;;;22.43;23.44;96495.72;10508872;28;2064;-68
2024/01/11 14:07:38;;;;;;;;;;;;;;;22.47;23.15;96495.97;10515709;28;1897;-68
2024/01/11 14:12:38;;;;;;;;;;;;;;;22.47;23.35;96494.13;10514606;28;2020;-69
2024/01/11 14:17:39;;;;;;;;;;;;;;;22.44;23.54;96491.25;10513862;28;1960;-66
2024/01/11 14:22:46;;;;;;;;;;;;;;;22.45;23.04;96490.16;10500674;28;2028;-67
2024/01/11 14:27:47;;;;;;;;;;;;;;;22.46;23.11;96484.59;10515128;28;2226;-69
2024/01/11 14:32:48;;;;;;;;;;;;;;;22.44;23.30;96502.56;10514303;28;2118;-67
2024/01/11 14:37:49;;;;;;;;;;;;;;;22.51;22.87;96503.09;10519612;28;1899;-68
2024/01/11 14:42:50;;;;;;;;;;;;;;;22.47;23.28;96491.50;10508106;28;1974;-67
2024/01/11 14:47:50;;;;;;;;;;;;;;;22.49;22.78;96489.38;10515877;28;2402;-68
2024/01/11 14:52:51;;;;;;;;;;;;;;;22.49;23.11;96505.22;10518498;28;1983;-70
2024/01/11 14:57:51;;;;;;;;;;;;;;;22.46;22.96;96505.75;10521234;28;1928;-67
2024/01/11 15:02:51;;;;;;;;;;;;;;;22.45;23.17;96501.53;10504854;28;2195;-67
2024/01/11 15:07:54;;;;;;;;;;;;;;;22.46;21.96;96518.19;10502777;28;1999;-72
2024/01/11 15:12:54;;;;;;;;;;;;;;;22.30;23.33;96509.47;10520448;28;1878;-68
2024/01/11 15:17:54;;;;;;;;;;;;;;;22.35;22.31;96503.41;10519789;28;2036;-67
2024/01/11 15:22:54;;;;;;;;;;;;;;;22.36;22.95;96500.47;10521138;28;1990;-67
2024/01/11 15:27:55;;;;;;;;;;;;;;;22.36;22.64;96510.28;10516130;28;2087;-69
2024/01/11 15:32:55;;;;;;;;;;;;;;;22.35;22.73;96514.75;10500315;28;1941;-71
2024/01/11 15:37:55;;;;;;;;;;;;;;;22.37;22.81;96525.84;10526556;28;2047;-70
2024/01/11 15:42:57;;;;;;;;;;;;;;;22.36;22.61;96526.91;10514624;28;2649;-70
2024/01/11 15:47:57;;;;;;;;;;;;;;;22.38;22.01;96556.47;10516942;28;1976;-70
2024/01/11 15:52:58;;;;;;;;;;;;;;;22.29;22.40;96558.09;10513714;28;1974;-71
2024/01/11 15:58:00;;;;;;;;;;;;;;;22.32;22.66;96568.09;10501962;28;1919;-68
2024/01/11 16:03:00;;;;;;;;;;;;;;;22.32;21.92;96554.09;10524945;28;2038;-69
2024/01/11 16:08:00;;;;;;;;;;;;;;;22.30;22.18;96572.06;10496824;28;2136;-69
2024/01/11 16:13:02;;;;;;;;;;;;;;;22.27;22.06;96583.97;10516231;28;2191;-69
2024/01/11 16:18:02;;;;;;;;;;;;;;;22.30;22.13;96578.16;10517671;28;1902;-68
2024/01/11 16:23:02;;;;;;;;;;;;;;;22.26;21.95;96589.50;10503760;28;2028;-68
2024/01/11 16:28:03;;;;;;;;;;;;;;;22.27;22.25;96601.66;10513458;28;2457;-69
2024/01/11 16:33:03;;;;;;;;;;;;;;;22.19;22.30;96600.34;10514650;28;1912;-69
2024/01/11 16:38:05;;;;;;;;;;;;;;;22.23;21.86;96585.56;10514597;28;2005;-69
2024/01/11 16:43:05;;;;;;;;;;;;;;;22.18;21.94;96561.78;10514644;28;2060;-67
2024/01/11 16:48:09;;;;;;;;;;;;;;;22.20;21.11;96564.94;10484702;28;1994;-68
2024/01/11 16:53:10;;;;;;;;;;;;;;;22.19;22.11;96573.94;10518839;28;1877;-68
2024/01/11 16:58:11;;;;;;;;;;;;;;;22.19;21.73;96567.84;10497257;28;1950;-69
2024/01/11 17:03:11;;;;;;;;;;;;;;;22.16;20.95;96577.09;10512712;28;2060;-69
2024/01/11 17:08:11;;;;;;;;;;;;;;;22.13;21.56;96593.47;10514152;28;2060;-69
2024/01/11 17:13:11;;;;;;;;;;;;;;;22.06;22.47;96585.00;10489104;28;2237;-68
2024/01/11 17:18:12;;;;;;;;;;;;;;;22.08;23.02;96598.75;10510079;28;2091;-68
2024/01/11 17:23:14;;;;;;;;;;;;;;;22.09;23.35;96595.03;10512769;28;1928;-68
2024/01/11 17:28:14;;;;;;;;;;;;;;;22.09;23.62;96605.59;10512137;28;1996;-67
2024/01/11 17:33:15;;;;;;;;;;;;;;;22.20;22.77;96607.19;10509770;28;2411;-65
2024/01/11 17:38:15;;;;;;;;;;;;;;;22.19;23.40;96618.81;10507940;28;1927;-71
2024/01/11 17:43:19;;;;;;;;;;;;;;;22.09;23.27;96602.94;10510705;28;1922;-65
2024/01/11 17:48:19;;;;;;;;;;;;;;;21.96;22.85;96603.47;10507504;28;2033;-71
2024/01/11 17:53:19;;;;;;;;;;;;;;;21.91;22.87;96595.53;10508606;28;2624;-72
2024/01/11 17:58:19;;;;;;;;;;;;;;;21.92;22.90;96593.69;10505349;28;2090;-72
2024/01/11 18:03:20;;;;;;;;;;;;;;;21.82;22.87;96611.09;10489408;28;2083;-76
2024/01/11 18:08:20;;;;;;;;;;;;;;;21.83;22.89;96593.41;10493145;28;2107;-73
2024/01/11 18:13:21;;;;;;;;;;;;;;;21.83;22.61;96588.13;10511054;28;2172;-70
2024/01/11 18:18:21;;;;;;;;;;;;;;;21.65;24.13;96584.13;10509668;28;1966;-65
2024/01/11 18:23:24;;;;;;;;;;;;;;;21.70;24.14;96581.47;10513213;28;2002;-65
2024/01/11 18:28:24;;;;;;;;;;;;;;;21.71;24.09;96600.75;10509905;28;2165;-66
2024/01/11 18:33:25;;;;;;;;;;;;;;;21.71;24.44;96606.81;10515643;28;2847;-66
2024/01/11 18:38:25;;;;;;;;;;;;;;;21.73;23.83;96622.38;10507904;28;1918;-66
2024/01/11 18:43:25;;;;;;;;;;;;;;;21.74;23.90;96622.13;10524672;28;1667;-65
2024/01/11 18:48:26;;;;;;;;;;;;;;;21.77;23.70;96623.47;10520424;28;1845;-67
2024/01/11 18:53:26;;;;;;;;;;;;;;;21.81;23.64;96619.25;10529542;28;1887;-66
2024/01/11 18:58:27;;;;;;;;;;;;;;;21.81;23.07;96613.97;10526929;28;1910;-68
2024/01/11 19:03:27;;;;;;;;;;;;;;;21.75;23.58;96615.81;10508940;28;1730;-66
2024/01/11 19:08:28;;;;;;;;;;;;;;;21.80;23.02;96615.81;10528873;28;1440;-64
2024/01/11 19:13:28;;;;;;;;;;;;;;;21.80;23.32;96623.72;10503206;28;2398;-66
2024/01/11 19:18:28;;;;;;;;;;;;;;;21.78;23.71;96630.34;10527490;28;1985;-66
2024/01/11 19:23:29;;;;;;;;;;;;;;;21.81;23.03;96627.16;10521110;28;1727;-65
2024/01/11 19:28:29;;;;;;;;;;;;;;;21.80;22.08;96644.06;10501713;28;1570;-65
2024/01/11 19:33:29;;;;;;;;;;;;;;;21.80;23.46;96646.69;10503809;28;1699;-66
2024/01/11 19:38:29;;;;;;;;;;;;;;;21.80;22.81;96644.84;10530932;28;1910;-67
2024/01/11 19:43:30;;;;;;;;;;;;;;;21.77;22.70;96639.28;10524905;28;1527;-65
2024/01/11 19:48:30;;;;;;;;;;;;;;;21.74;22.84;96634.53;10521381;28;1451;-66
2024/01/11 19:53:30;;;;;;;;;;;;;;;21.75;22.98;96633.47;10522394;28;1710;-67
2024/01/11 19:58:30;;;;;;;;;;;;;;;21.79;23.05;96639.81;10525710;28;1893;-67
2024/01/11 20:03:32;;;;;;;;;;;;;;;21.74;22.21;96621.34;10519746;28;1745;-67
2024/01/11 20:08:38;;;;;;;;;;;;;;;21.74;22.70;96632.69;10508703;28;2190;-67
2024/01/11 20:13:39;;;;;;;;;;;;;;;21.73;22.24;96614.47;10521516;28;1541;-68
2024/01/11 20:18:39;;;;;;;;;;;;;;;21.73;23.24;96630.31;10515392;28;1897;-68
2024/01/11 20:23:42;;;;;;;;;;;;;;;21.74;22.44;96629.28;10503519;28;1966;-66
2024/01/11 20:28:42;;;;;;;;;;;;;;;21.73;22.03;96623.19;10520405;28;1500;-67
2024/01/11 20:33:43;;;;;;;;;;;;;;;21.72;22.04;96631.38;10496400;28;1864;-67
2024/01/11 20:38:43;;;;;;;;;;;;;;;21.72;22.42;96631.38;10521946;28;1917;-66
2024/01/11 20:43:44;;;;;;;;;;;;;;;21.70;22.21;96622.94;10524884;28;1490;-68
2024/01/11 20:48:45;;;;;;;;;;;;;;;21.69;22.23;96605.50;10519372;28;2406;-66
2024/01/11 20:53:45;;;;;;;;;;;;;;;21.64;22.99;96616.03;10513940;28;1488;-66
2024/01/11 20:58:46;;;;;;;;;;;;;;;21.65;23.03;96614.97;10520707;28;1996;-70
2024/01/11 21:03:46;;;;;;;;;;;;;;;21.69;22.73;96645.06;10523852;28;1452;-77
2024/01/11 21:08:46;;;;;;;;;;;;;;;21.69;22.95;96648.50;10505344;28;1639;-65
2024/01/11 21:13:47;;;;;;;;;;;;;;;21.61;22.17;96653.50;10522036;28;1713;-67
2024/01/11 21:18:52;;;;;;;;;;;;;;;21.53;22.13;96672.44;10522632;28;1918;-66
2024/01/11 21:23:58;;;;;;;;;;;;;;;21.46;22.06;96669.25;10520361;28;1508;-67
2024/01/11 21:29:00;;;;;;;;;;;;;;;21.47;22.47;96662.94;10522086;28;2319;-67
2024/01/11 21:34:02;;;;;;;;;;;;;;;21.40;22.25;96654.44;10515550;28;1542;-67
2024/01/11 21:39:04;;;;;;;;;;;;;;;21.39;22.26;96664.19;10520785;28;2060;-67
2024/01/11 21:44:04;;;;;;;;;;;;;;;21.32;22.40;96660.22;10518193;28;1594;-66
2024/01/11 21:49:05;;;;;;;;;;;;;;;21.32;21.63;96668.13;10518316;28;1923;-66
2024/01/11 21:54:05;;;;;;;;;;;;;;;21.25;22.00;96683.38;10521424;28;1487;-67
2024/01/11 21:59:07;;;;;;;;;;;;;;;21.25;22.00;96684.16;10520173;28;1945;-67
2024/01/11 22:04:07;;;;;;;;;;;;;;;21.21;22.10;96684.91;10498934;28;1945;-66
2024/01/11 22:09:08;;;;;;;;;;;;;;;21.18;21.89;96688.09;10514904;28;2048;-73
2024/01/11 22:14:08;;;;;;;;;;;;;;;21.17;22.37;96686.47;10509410;28;2024;-73
2024/01/11 22:19:08;;;;;;;;;;;;;;;21.19;22.81;96668.56;10504315;28;1959;-69
2024/01/11 22:24:09;;;;;;;;;;;;;;;21.15;22.73;96654.31;10496734;28;1974;-69
2024/01/11 22:29:09;;;;;;;;;;;;;;;21.16;23.10;96642.72;10507442;28;2005;-69
2024/01/11 22:34:09;;;;;;;;;;;;;;;21.13;23.21;96637.94;10505535;28;3051;-69
2024/01/11 22:39:10;;;;;;;;;;;;;;;21.10;22.83;96627.94;10510865;28;2275;-69
2024/01/11 22:44:10;;;;;;;;;;;;;;;21.08;23.19;96635.31;10503145;28;2035;-68
2024/01/11 22:49:10;;;;;;;;;;;;;;;21.01;23.39;96631.03;10510017;28;1966;-69
2024/01/11 22:54:11;;;;;;;;;;;;;;;20.94;23.13;96630.44;10512658;28;2106;-69
2024/01/11 22:59:11;;;;;;;;;;;;;;;20.89;23.53;96629.63;10517744;28;1963;-69
2024/01/11 23:04:12;;;;;;;;;;;;;;;20.89;23.16;96632.25;10517476;28;2005;-69
2024/01/11 23:09:12;;;;;;;;;;;;;;;20.79;23.64;96608.47;10521381;28;2025;-69
2024/01/11 23:14:12;;;;;;;;;;;;;;;20.74;23.66;96614.50;10516077;28;3004;-69
2024/01/11 23:19:13;;;;;;;;;;;;;;;20.66;23.66;96611.53;10512381;28;1983;-69
2024/01/11 23:24:14;;;;;;;;;;;;;;;20.65;23.32;96608.09;10515982;28;2083;-69
2024/01/11 23:29:14;;;;;;;;;;;;;;;20.60;23.43;96612.56;10517030;28;1969;-69
2024/01/11 23:34:14;;;;;;;;;;;;;;;20.57;23.27;96618.31;10519785;28;2075;-68
2024/01/11 23:39:15;;;;;;;;;;;;;;;20.51;23.46;96614.84;10508903;28;2299;-69
2024/01/11 23:44:15;;;;;;;;;;;;;;;20.45;23.51;96602.69;10511873;28;1981;-68
2024/01/11 23:49:15;;;;;;;;;;;;;;;20.43;23.54;96610.06;10515803;28;2122;-69
2024/01/11 23:54:16;;;;;;;;;;;;;;;20.40;22.98;96623.75;10515375;28;3022;-70
2024/01/11 23:59:19;;;;;;;;;;;;;;;20.36;23.41;96629.75;10483577;28;2108;-67
